createdAt,value
2019-06-01T00:00:55.299Z,4.77
2019-06-01T00:03:23.681Z,4.13
2019-06-01T00:05:52.060Z,4.43
2019-06-01T00:08:20.434Z,4.37
2019-06-01T00:10:49.443Z,3.90
2019-06-01T00:13:18.989Z,4.10
2019-06-01T00:15:50.422Z,4.03
2019-06-01T00:18:19.163Z,4.43
2019-06-01T00:20:48.608Z,4.10
2019-06-01T00:23:17.281Z,4.40
2019-06-01T00:25:48.602Z,4.73
2019-06-01T00:28:17.281Z,4.37
2019-06-01T00:30:46.180Z,4.10
2019-06-01T00:33:14.667Z,4.30
2019-06-01T00:35:43.562Z,5.13
2019-06-01T00:38:13.861Z,4.73
2019-06-01T00:40:42.240Z,4.90
2019-06-01T00:43:10.621Z,4.53
2019-06-01T00:45:39.451Z,4.90
2019-06-01T00:48:07.946Z,4.10
2019-06-01T00:50:36.416Z,4.20
2019-06-01T00:53:04.798Z,5.20
2019-06-01T00:55:33.436Z,4.57
2019-06-01T00:58:01.826Z,5.43
2019-06-01T01:00:43.191Z,4.90
2019-06-01T01:03:02.446Z,4.80
2019-06-01T01:05:30.932Z,5.40
2019-06-01T01:07:59.900Z,5.33
2019-06-01T01:10:28.896Z,4.80
2019-06-01T01:13:10.142Z,4.10
2019-06-01T01:15:39.129Z,4.23
2019-06-01T01:18:09.418Z,4.43
2019-06-01T01:20:38.158Z,4.30
2019-06-01T01:23:07.713Z,5.13
2019-06-01T01:25:36.150Z,5.60
2019-06-01T01:28:05.165Z,4.50
2019-06-01T01:30:33.638Z,4.80
2019-06-01T01:33:02.048Z,4.70
2019-06-01T01:35:30.427Z,4.10
2019-06-01T01:37:58.909Z,5.20
2019-06-01T01:40:27.772Z,4.17
2019-06-01T01:42:56.586Z,5.23
2019-06-01T01:45:25.155Z,4.73
2019-06-01T01:47:54.970Z,5.30
2019-06-01T01:50:25.820Z,4.23
2019-06-01T01:52:56.831Z,4.47
2019-06-01T01:55:25.723Z,4.13
2019-06-01T01:57:55.382Z,4.50
2019-06-01T02:00:54.439Z,4.17
2019-06-01T02:03:22.865Z,4.50
2019-06-01T02:05:52.834Z,4.50
2019-06-01T02:08:21.588Z,4.30
2019-06-01T02:10:51.109Z,4.80
2019-06-01T02:13:19.714Z,4.70
2019-06-01T02:15:48.987Z,4.73
2019-06-01T02:18:17.466Z,4.30
2019-06-01T02:20:45.959Z,4.23
2019-06-01T02:23:14.414Z,5.27
2019-06-01T02:25:42.882Z,4.27
2019-06-01T02:28:11.440Z,4.50
2019-06-01T02:30:39.828Z,4.43
2019-06-01T02:33:08.215Z,4.73
2019-06-01T02:35:36.703Z,4.67
2019-06-01T02:38:05.774Z,5.07
2019-06-01T02:40:34.799Z,5.63
2019-06-01T02:43:04.239Z,4.90
2019-06-01T02:45:33.581Z,3.97
2019-06-01T02:48:03.734Z,4.80
2019-06-01T02:50:32.239Z,5.50
2019-06-01T02:53:01.522Z,4.60
2019-06-01T02:55:30.182Z,5.03
2019-06-01T02:58:00.450Z,4.57
2019-06-01T03:01:22.832Z,4.40
2019-06-01T03:03:54.427Z,4.50
2019-06-01T03:06:22.956Z,4.73
2019-06-01T03:08:54.295Z,4.90
2019-06-01T03:11:26.118Z,4.70
2019-06-01T03:13:58.229Z,5.20
2019-06-01T03:16:29.388Z,5.17
2019-06-01T03:19:01.832Z,4.43
2019-06-01T03:21:32.877Z,4.13
2019-06-01T03:24:08.055Z,4.30
2019-06-01T03:26:45.315Z,4.50
2019-06-01T03:29:16.734Z,5.50
2019-06-01T03:31:45.212Z,4.87
2019-06-01T03:34:14.144Z,4.50
2019-06-01T03:36:42.942Z,4.97
2019-06-01T03:39:12.879Z,5.17
2019-06-01T03:41:41.986Z,5.70
2019-06-01T03:44:12.965Z,4.27
2019-06-01T03:46:41.776Z,4.53
2019-06-01T03:49:10.243Z,5.27
2019-06-01T03:51:38.801Z,4.87
2019-06-01T03:54:08.549Z,5.03
2019-06-01T03:56:37.774Z,4.90
2019-06-01T03:59:07.359Z,4.80
2019-06-01T04:01:35.948Z,5.07
2019-06-01T04:04:05.046Z,4.77
2019-06-01T04:06:33.864Z,4.77
2019-06-01T04:09:05.567Z,5.57
2019-06-01T04:11:34.401Z,5.30
2019-06-01T04:14:03.583Z,5.70
2019-06-01T04:16:33.998Z,4.90
2019-06-01T04:19:02.432Z,5.63
2019-06-01T04:21:32.601Z,4.83
2019-06-01T04:24:03.944Z,4.43
2019-06-01T04:26:32.660Z,4.73
2019-06-01T04:29:02.306Z,5.70
2019-06-01T04:31:32.311Z,4.97
2019-06-01T04:34:00.806Z,4.97
2019-06-01T04:36:29.389Z,5.73
2019-06-01T04:38:58.486Z,4.97
2019-06-01T04:41:27.062Z,5.57
2019-06-01T04:43:56.037Z,4.70
2019-06-01T04:46:24.618Z,4.93
2019-06-01T04:48:54.777Z,5.00
2019-06-01T04:51:23.244Z,4.67
2019-06-01T04:53:55.733Z,5.57
2019-06-01T04:56:26.511Z,5.77
2019-06-01T04:58:55.005Z,5.30
2019-06-01T05:01:23.394Z,5.70
2019-06-01T05:03:51.752Z,4.97
2019-06-01T05:06:20.340Z,5.37
2019-06-01T05:08:48.809Z,4.60
2019-06-01T05:11:17.193Z,6.00
2019-06-01T05:13:46.140Z,6.27
2019-06-01T05:16:16.618Z,5.40
2019-06-01T05:18:45.376Z,5.50
2019-06-01T05:21:15.168Z,6.20
2019-06-01T05:23:47.978Z,4.83
2019-06-01T05:26:17.516Z,4.83
2019-06-01T05:28:46.661Z,4.60
2019-06-01T05:31:24.707Z,3.90
2019-06-01T05:33:45.783Z,4.47
2019-06-01T05:36:14.378Z,3.90
2019-06-01T05:38:43.038Z,4.00
2019-06-01T05:41:11.932Z,4.40
2019-06-01T05:43:41.613Z,5.10
2019-06-01T05:46:10.139Z,3.87
2019-06-01T05:48:38.622Z,4.63
2019-06-01T05:51:07.211Z,4.60
2019-06-01T05:53:35.725Z,5.13
2019-06-01T05:56:04.251Z,3.50
2019-06-01T05:58:32.793Z,4.70
2019-06-01T06:01:01.315Z,4.03
2019-06-01T06:03:40.034Z,5.20
2019-06-01T06:06:00.064Z,4.33
2019-06-01T06:08:28.564Z,4.67
2019-06-01T06:10:57.279Z,5.07
2019-06-01T06:13:25.839Z,5.43
2019-06-01T06:15:54.292Z,6.80
2019-06-01T06:18:22.684Z,5.87
2019-06-01T06:20:51.250Z,7.87
2019-06-01T06:23:20.567Z,8.63
2019-06-01T06:25:49.923Z,7.10
2019-06-01T06:28:18.775Z,6.27
2019-06-01T06:30:47.349Z,8.83
2019-06-01T06:33:15.728Z,5.90
2019-06-01T06:35:44.292Z,4.50
2019-06-01T06:38:13.603Z,5.20
2019-06-01T06:40:42.216Z,5.00
2019-06-01T06:43:19.311Z,5.53
2019-06-01T06:51:17.189Z,6.37
2019-06-01T06:53:52.160Z,4.50
2019-06-01T06:56:21.929Z,15.30
2019-06-01T07:08:13.313Z,4.80
2019-06-01T07:10:41.743Z,5.50
2019-06-01T07:13:11.245Z,11.77
2019-06-01T07:15:39.891Z,6.97
2019-06-01T07:18:08.589Z,4.87
2019-06-01T07:20:37.155Z,4.53
2019-06-01T07:23:05.514Z,4.50
2019-06-01T07:25:33.896Z,4.80
2019-06-01T07:28:04.980Z,5.07
2019-06-01T07:30:49.423Z,4.67
2019-06-01T07:33:03.912Z,4.77
2019-06-01T07:35:32.601Z,4.03
2019-06-01T07:38:01.146Z,4.90
2019-06-01T07:40:29.594Z,4.70
2019-06-01T07:42:58.083Z,4.07
2019-06-01T07:45:26.929Z,3.93
2019-06-01T07:47:55.524Z,4.13
2019-06-01T07:50:24.016Z,4.20
2019-06-01T07:52:54.571Z,4.90
2019-06-01T07:55:23.509Z,4.80
2019-06-01T07:57:52.136Z,4.77
2019-06-01T08:00:20.996Z,4.50
2019-06-01T08:02:50.915Z,4.10
2019-06-01T08:05:19.302Z,4.33
2019-06-01T08:07:47.675Z,4.23
2019-06-01T08:10:16.147Z,4.03
2019-06-01T08:12:44.607Z,4.10
2019-06-01T08:15:13.280Z,4.00
2019-06-01T08:17:41.647Z,4.93
2019-06-01T08:20:12.034Z,5.17
2019-06-01T08:22:40.798Z,5.30
2019-06-01T08:25:09.182Z,6.13
2019-06-01T08:27:37.681Z,4.40
2019-06-01T08:30:06.422Z,3.87
2019-06-01T08:32:36.575Z,4.40
2019-06-01T08:35:09.130Z,4.47
2019-06-01T08:37:37.359Z,4.67
2019-06-01T08:40:06.243Z,3.83
2019-06-01T08:42:34.825Z,5.50
2019-06-01T08:45:04.104Z,4.57
2019-06-01T08:47:33.926Z,6.00
2019-06-01T08:50:02.688Z,8.50
2019-06-01T08:52:32.174Z,6.50
2019-06-01T08:55:01.004Z,5.20
2019-06-01T08:57:30.334Z,5.10
2019-06-01T09:00:00.049Z,6.33
2019-06-01T09:02:29.040Z,4.97
2019-06-01T09:04:57.630Z,5.20
2019-06-01T09:07:26.863Z,4.83
2019-06-01T09:09:55.493Z,5.03
2019-06-01T09:12:25.105Z,4.97
2019-06-01T09:14:54.080Z,5.50
2019-06-01T09:17:22.551Z,8.60
2019-06-01T09:19:51.225Z,9.50
2019-06-01T09:22:21.482Z,4.27
2019-06-01T09:24:53.337Z,8.33
2019-06-01T09:27:22.571Z,4.97
2019-06-01T09:29:52.057Z,3.97
2019-06-01T09:32:20.519Z,3.97
2019-06-01T09:34:48.899Z,4.57
2019-06-01T09:37:17.282Z,5.60
2019-06-01T09:39:45.947Z,6.10
2019-06-01T09:42:14.486Z,4.40
2019-06-01T09:44:42.845Z,4.40
2019-06-01T09:47:12.545Z,4.83
2019-06-01T09:49:41.004Z,4.13
2019-06-01T09:52:12.150Z,5.27
2019-06-01T09:54:39.992Z,5.40
2019-06-01T09:57:08.485Z,6.40
2019-06-01T09:59:37.935Z,10.07
2019-06-01T10:02:09.181Z,4.53
2019-06-01T10:04:38.794Z,3.90
2019-06-01T10:07:07.376Z,3.77
2019-06-01T10:09:35.819Z,4.00
2019-06-01T10:12:04.639Z,5.53
2019-06-01T10:14:39.042Z,3.30
2019-06-01T10:17:07.383Z,4.70
2019-06-01T10:19:36.744Z,4.20
2019-06-01T10:22:05.613Z,3.70
2019-06-01T10:24:34.893Z,4.43
2019-06-01T10:27:03.854Z,3.87
2019-06-01T10:29:32.610Z,5.70
2019-06-01T10:32:01.502Z,3.83
2019-06-01T10:34:29.848Z,8.53
2019-06-01T10:36:58.350Z,6.20
2019-06-01T10:39:26.819Z,9.47
2019-06-01T10:41:57.064Z,4.57
2019-06-01T10:44:26.333Z,3.60
2019-06-01T10:46:55.289Z,3.43
2019-06-01T10:49:23.741Z,15.20
2019-06-01T10:51:53.955Z,14.60
2019-06-01T10:54:22.422Z,5.80
2019-06-01T10:56:51.156Z,5.50
2019-06-01T10:59:19.787Z,11.37
2019-06-01T11:01:48.374Z,5.90
2019-06-01T11:04:17.149Z,3.63
2019-06-01T11:06:48.669Z,6.70
2019-06-01T11:09:15.880Z,6.10
2019-06-01T11:11:44.366Z,14.20
2019-06-01T11:14:12.754Z,12.67
2019-06-01T11:16:41.877Z,11.63
2019-06-01T11:19:10.327Z,6.50
2019-06-01T11:21:39.540Z,4.27
2019-06-01T11:24:15.219Z,4.13
2019-06-01T11:26:43.968Z,3.87
2019-06-01T11:29:13.895Z,3.30
2019-06-01T11:31:42.455Z,3.80
2019-06-01T11:34:10.908Z,3.60
2019-06-01T11:37:03.659Z,4.83
2019-06-01T11:39:12.900Z,3.00
2019-06-01T11:41:43.129Z,3.77
2019-06-01T11:44:11.485Z,3.40
2019-06-01T11:46:41.081Z,4.30
2019-06-01T11:49:10.853Z,3.33
2019-06-01T11:51:39.496Z,4.87
2019-06-01T11:54:16.090Z,4.80
2019-06-01T11:56:45.540Z,7.50
2019-06-01T11:59:14.566Z,4.80
2019-06-01T12:01:44.086Z,2.90
2019-06-01T12:04:12.829Z,3.00
2019-06-01T12:06:42.012Z,3.27
2019-06-01T12:09:10.779Z,6.20
2019-06-01T12:11:40.009Z,2.60
2019-06-01T12:14:09.110Z,3.87
2019-06-01T12:16:38.423Z,3.20
2019-06-01T12:19:06.869Z,2.70
2019-06-01T12:21:37.068Z,4.30
2019-06-01T12:24:06.584Z,7.40
2019-06-01T12:26:35.133Z,3.27
2019-06-01T12:29:03.608Z,3.00
2019-06-01T12:31:32.417Z,4.10
2019-06-01T12:34:00.791Z,3.43
2019-06-01T12:36:29.177Z,2.93
2019-06-01T12:38:58.235Z,3.40
2019-06-01T12:41:26.610Z,2.80
2019-06-01T12:44:11.442Z,2.57
2019-06-01T12:46:41.725Z,4.13
2019-06-01T12:49:10.655Z,5.70
2019-06-01T12:51:40.397Z,2.87
2019-06-01T12:54:18.373Z,4.53
2019-06-01T12:56:47.766Z,2.70
2019-06-01T12:59:17.053Z,3.20
2019-06-01T13:01:45.496Z,2.80
2019-06-01T13:04:13.870Z,3.90
2019-06-01T13:06:42.679Z,4.07
2019-06-01T13:09:11.201Z,3.20
2019-06-01T13:11:41.185Z,3.43
2019-06-01T13:14:10.125Z,2.57
2019-06-01T13:16:38.657Z,2.80
2019-06-01T13:19:08.524Z,3.00
2019-06-01T13:21:37.040Z,3.30
2019-06-01T13:24:06.163Z,2.90
2019-06-01T13:26:34.526Z,4.20
2019-06-01T13:29:02.950Z,3.30
2019-06-01T13:31:31.960Z,3.73
2019-06-01T13:34:00.446Z,2.90
2019-06-01T13:36:29.137Z,2.67
2019-06-01T13:38:57.687Z,2.80
2019-06-01T13:41:26.127Z,3.07
2019-06-01T13:43:54.619Z,3.07
2019-06-01T13:46:22.981Z,2.70
2019-06-01T13:48:52.670Z,2.30
2019-06-01T13:51:21.950Z,2.93
2019-06-01T13:53:50.614Z,2.50
2019-06-01T13:56:19.534Z,3.30
2019-06-01T13:58:48.226Z,3.10
2019-06-01T14:01:17.220Z,2.80
2019-06-01T14:03:47.184Z,2.80
2019-06-01T14:06:15.984Z,3.50
2019-06-01T14:08:45.001Z,3.20
2019-06-01T14:11:13.533Z,3.10
2019-06-01T14:13:42.021Z,4.10
2019-06-01T14:16:10.403Z,3.60
2019-06-01T14:18:38.794Z,3.40
2019-06-01T14:21:07.325Z,3.37
2019-06-01T14:23:35.694Z,3.63
2019-06-01T14:26:04.310Z,3.77
2019-06-01T14:28:32.693Z,2.87
2019-06-01T14:31:01.141Z,3.73
2019-06-01T14:33:29.534Z,2.70
2019-06-01T14:35:58.229Z,2.50
2019-06-01T14:38:26.586Z,3.00
2019-06-01T14:40:55.247Z,2.70
2019-06-01T14:43:23.762Z,3.70
2019-06-01T14:45:54.231Z,3.83
2019-06-01T14:48:22.806Z,2.77
2019-06-01T14:50:51.628Z,3.70
2019-06-01T14:53:20.153Z,3.37
2019-06-01T14:55:49.761Z,3.60
2019-06-01T14:58:18.278Z,3.47
2019-06-01T15:00:48.348Z,3.10
2019-06-01T15:03:16.833Z,3.60
2019-06-01T15:05:45.308Z,3.30
2019-06-01T15:08:13.661Z,3.37
2019-06-01T15:10:42.048Z,3.17
2019-06-01T15:13:10.415Z,2.70
2019-06-01T15:15:38.876Z,3.13
2019-06-01T15:18:07.261Z,2.70
2019-06-01T15:20:36.325Z,2.87
2019-06-01T15:23:04.812Z,2.93
2019-06-01T15:25:33.170Z,4.23
2019-06-01T15:28:01.823Z,3.23
2019-06-01T15:30:31.845Z,3.30
2019-06-01T15:33:00.227Z,3.30
2019-06-01T15:35:28.593Z,3.80
2019-06-01T15:38:01.475Z,2.70
2019-06-01T15:40:27.727Z,3.60
2019-06-01T15:42:57.350Z,3.23
2019-06-01T15:45:25.867Z,3.83
2019-06-01T15:47:55.430Z,3.40
2019-06-01T15:50:24.159Z,3.47
2019-06-01T15:52:53.047Z,2.93
2019-06-01T15:55:23.300Z,2.73
2019-06-01T15:57:52.221Z,2.90
2019-06-01T16:00:20.852Z,2.77
2019-06-01T16:02:49.220Z,3.27
2019-06-01T16:05:17.824Z,2.97
2019-06-01T16:07:46.201Z,3.10
2019-06-01T16:10:14.765Z,3.40
2019-06-01T16:12:43.138Z,3.37
2019-06-01T16:15:13.792Z,3.10
2019-06-01T16:17:42.315Z,3.20
2019-06-01T16:20:11.198Z,3.57
2019-06-01T16:22:39.586Z,2.97
2019-06-01T16:25:09.753Z,2.97
2019-06-01T16:27:38.133Z,3.17
2019-06-01T16:30:07.017Z,3.43
2019-06-01T16:32:39.423Z,3.60
2019-06-01T16:35:08.121Z,3.10
2019-06-01T16:37:36.637Z,3.50
2019-06-01T16:40:09.878Z,3.30
2019-06-01T16:42:36.771Z,3.87
2019-06-01T16:45:06.263Z,4.20
2019-06-01T16:47:34.728Z,3.80
2019-06-01T16:50:03.890Z,3.70
2019-06-01T16:52:32.552Z,3.23
2019-06-01T16:55:02.615Z,3.60
2019-06-01T16:57:32.926Z,3.70
2019-06-01T17:00:02.631Z,3.53
2019-06-01T17:02:33.075Z,4.33
2019-06-01T17:05:02.933Z,3.83
2019-06-01T17:07:31.536Z,4.70
2019-06-01T17:10:18.414Z,4.10
2019-06-01T17:12:30.279Z,4.23
2019-06-01T17:14:58.915Z,4.83
2019-06-01T17:17:27.326Z,4.10
2019-06-01T17:19:56.907Z,4.73
2019-06-01T17:22:25.561Z,4.27
2019-06-01T17:24:54.430Z,4.33
2019-06-01T17:27:22.788Z,4.80
2019-06-01T17:29:51.291Z,4.07
2019-06-01T17:32:24.621Z,4.47
2019-06-01T17:34:50.791Z,4.47
2019-06-01T17:37:19.177Z,4.30
2019-06-01T17:39:47.773Z,5.13
2019-06-01T17:42:16.309Z,4.73
2019-06-01T17:44:44.682Z,5.77
2019-06-01T17:47:13.595Z,4.70
2019-06-01T17:49:41.965Z,5.13
2019-06-01T17:52:11.791Z,5.53
2019-06-01T17:54:40.312Z,4.90
2019-06-01T17:57:09.289Z,5.27
2019-06-01T17:59:37.851Z,5.90
2019-06-01T18:02:08.071Z,4.73
2019-06-01T18:04:36.446Z,5.60
2019-06-01T18:07:05.741Z,5.80
2019-06-01T18:09:34.490Z,6.10
2019-06-01T18:12:03.933Z,5.00
2019-06-01T18:14:32.470Z,5.67
2019-06-01T18:17:02.041Z,6.10
2019-06-01T18:19:31.010Z,5.40
2019-06-01T18:21:59.551Z,5.37
2019-06-01T18:24:30.357Z,6.00
2019-06-01T18:26:58.723Z,5.67
2019-06-01T18:29:27.110Z,5.30
2019-06-01T18:31:55.629Z,5.67
2019-06-01T18:34:24.173Z,6.10
2019-06-01T18:36:52.531Z,5.70
2019-06-01T18:39:21.052Z,5.23
2019-06-01T18:41:49.831Z,6.00
2019-06-01T18:44:18.598Z,5.83
2019-06-01T18:46:47.306Z,6.63
2019-06-01T18:49:18.077Z,7.40
2019-06-01T18:51:46.920Z,7.43
2019-06-01T18:54:17.347Z,8.00
2019-06-01T18:56:45.853Z,7.00
2019-06-01T18:59:14.517Z,6.80
2019-06-01T19:01:43.089Z,6.43
2019-06-01T19:04:11.851Z,7.97
2019-06-01T19:06:40.406Z,11.60
2019-06-01T19:09:09.458Z,8.90
2019-06-01T19:11:38.426Z,8.57
2019-06-01T19:14:07.815Z,7.17
2019-06-01T19:16:36.497Z,6.73
2019-06-01T19:19:06.130Z,6.73
2019-06-01T19:21:34.680Z,6.53
2019-06-01T19:24:03.305Z,7.53
2019-06-01T19:26:31.681Z,10.70
2019-06-01T19:29:00.475Z,11.37
2019-06-01T19:31:29.299Z,10.10
2019-06-01T19:33:57.698Z,10.17
2019-06-01T19:36:27.229Z,9.33
2019-06-01T19:38:56.978Z,8.13
2019-06-01T19:41:25.907Z,7.27
2019-06-01T19:43:54.282Z,6.73
2019-06-01T19:46:22.648Z,6.67
2019-06-01T19:48:51.121Z,7.60
2019-06-01T19:51:19.958Z,6.77
2019-06-01T19:53:48.514Z,6.80
2019-06-01T19:56:17.110Z,7.43
2019-06-01T19:58:45.921Z,6.80
2019-06-01T20:01:14.387Z,7.10
2019-06-01T20:03:43.093Z,7.03
2019-06-01T20:06:12.805Z,7.67
2019-06-01T20:08:41.747Z,7.33
2019-06-01T20:11:11.187Z,7.90
2019-06-01T20:13:39.783Z,6.90
2019-06-01T20:16:08.416Z,7.43
2019-06-01T20:18:37.298Z,7.30
2019-06-01T20:21:05.931Z,7.40
2019-06-01T20:23:36.257Z,7.50
2019-06-01T20:26:05.015Z,7.07
2019-06-01T20:28:33.557Z,6.50
2019-06-01T20:31:02.687Z,7.00
2019-06-01T20:33:31.314Z,6.30
2019-06-01T20:35:59.904Z,7.37
2019-06-01T20:38:29.148Z,6.13
2019-06-01T20:40:57.828Z,6.40
2019-06-01T20:43:26.612Z,6.50
2019-06-01T20:45:56.892Z,6.70
2019-06-01T20:48:26.320Z,7.37
2019-06-01T20:50:55.008Z,6.77
2019-06-01T20:53:23.395Z,6.73
2019-06-01T20:55:52.776Z,6.80
2019-06-01T20:58:23.198Z,7.03
2019-06-01T21:00:51.898Z,6.20
2019-06-01T21:03:20.273Z,7.13
2019-06-01T21:05:48.997Z,7.73
2019-06-01T21:08:18.114Z,6.63
2019-06-01T21:10:46.950Z,7.20
2019-06-01T21:13:16.006Z,6.60
2019-06-01T21:15:46.417Z,7.23
2019-06-01T21:18:16.162Z,7.10
2019-06-01T21:20:44.851Z,7.40
2019-06-01T21:23:14.325Z,7.13
2019-06-01T21:25:42.967Z,6.80
2019-06-01T21:28:14.326Z,5.73
2019-06-01T21:30:42.204Z,6.70
2019-06-01T21:33:10.586Z,6.27
2019-06-01T21:35:39.047Z,8.47
2019-06-01T21:38:07.561Z,7.30
2019-06-01T21:40:36.400Z,8.00
2019-06-01T21:43:23.119Z,8.40
2019-06-01T21:45:36.915Z,6.30
2019-06-01T21:48:05.394Z,7.50
2019-06-01T21:50:33.863Z,6.80
2019-06-01T21:53:02.244Z,7.07
2019-06-01T21:55:30.901Z,6.43
2019-06-01T21:57:59.606Z,6.30
2019-06-01T22:00:36.506Z,6.80
2019-06-01T22:03:06.080Z,7.00
2019-06-01T22:05:34.705Z,6.63
2019-06-01T22:08:03.688Z,6.00
2019-06-01T22:10:32.240Z,5.90
2019-06-01T22:13:15.271Z,5.90
2019-06-01T22:15:31.019Z,6.30
2019-06-01T22:17:59.412Z,6.00
2019-06-01T22:20:28.230Z,5.90
2019-06-01T22:22:57.604Z,7.10
2019-06-01T22:25:25.992Z,6.00
2019-06-01T22:27:54.459Z,6.20
2019-06-01T22:30:22.857Z,6.37
2019-06-01T22:32:51.245Z,5.70
2019-06-01T22:35:20.877Z,4.63
2019-06-01T22:37:49.568Z,5.43
2019-06-01T22:40:19.361Z,5.80
2019-06-01T22:42:48.149Z,6.10
2019-06-01T22:45:16.915Z,5.67
2019-06-01T22:47:45.503Z,5.80
2019-06-01T22:50:15.278Z,5.57
2019-06-01T22:52:43.735Z,5.00
2019-06-01T22:55:12.227Z,5.87
2019-06-01T22:57:43.133Z,5.93
2019-06-01T23:00:11.105Z,6.10
2019-06-01T23:02:39.580Z,5.90
2019-06-01T23:05:08.368Z,5.70
2019-06-01T23:07:36.843Z,7.10
2019-06-01T23:10:06.211Z,6.90
2019-06-01T23:12:34.688Z,6.93
2019-06-01T23:15:03.199Z,5.23
2019-06-01T23:17:32.026Z,5.03
2019-06-01T23:20:00.567Z,6.57
2019-06-01T23:22:30.113Z,5.97
2019-06-01T23:24:58.728Z,5.77
2019-06-01T23:27:28.293Z,5.83
2019-06-01T23:29:57.009Z,5.83
2019-06-01T23:32:26.461Z,6.63
2019-06-01T23:34:55.753Z,6.10
2019-06-01T23:37:24.702Z,6.40
2019-06-01T23:39:53.640Z,5.30
2019-06-01T23:42:22.572Z,5.80
2019-06-01T23:44:52.823Z,6.43
2019-06-01T23:47:21.205Z,5.60
2019-06-01T23:49:51.379Z,5.60
2019-06-01T23:52:19.961Z,5.47
2019-06-01T23:54:48.426Z,5.90
2019-06-01T23:57:17.093Z,5.90
2019-06-01T23:59:46.078Z,5.77
